sensor_id;sensor_type;location;lat;lon;timestamp;P1;durP1;ratioP1;P2;durP2;ratioP2
65033;SDS011;51601;51.356;12.458;2023-07-31T00:01:06;7.93;;;2.35;;
65033;SDS011;51601;51.356;12.458;2023-07-31T00:05:24;6.70;;;2.10;;
65033;SDS011;51601;51.356;12.458;2023-07-31T00:09:43;8.55;;;2.35;;
65033;SDS011;51601;51.356;12.458;2023-07-31T00:14:00;5.95;;;2.13;;
65033;SDS011;51601;51.356;12.458;2023-07-31T00:18:18;7.57;;;1.90;;
65033;SDS011;51601;51.356;12.458;2023-07-31T00:22:36;6.45;;;1.70;;
65033;SDS011;51601;51.356;12.458;2023-07-31T00:26:55;7.00;;;2.20;;
65033;SDS011;51601;51.356;12.458;2023-07-31T00:31:15;7.00;;;2.03;;
65033;SDS011;51601;51.356;12.458;2023-07-31T00:35:33;6.60;;;2.38;;
65033;SDS011;51601;51.356;12.458;2023-07-31T00:39:51;8.82;;;2.40;;
65033;SDS011;51601;51.356;12.458;2023-07-31T00:44:11;7.88;;;2.10;;
65033;SDS011;51601;51.356;12.458;2023-07-31T00:48:27;9.10;;;2.30;;
65033;SDS011;51601;51.356;12.458;2023-07-31T00:52:45;7.30;;;2.10;;
65033;SDS011;51601;51.356;12.458;2023-07-31T00:57:03;9.27;;;2.50;;
65033;SDS011;51601;51.356;12.458;2023-07-31T01:01:26;11.33;;;2.43;;
65033;SDS011;51601;51.356;12.458;2023-07-31T01:05:48;6.85;;;1.80;;
65033;SDS011;51601;51.356;12.458;2023-07-31T01:10:15;6.53;;;2.10;;
65033;SDS011;51601;51.356;12.458;2023-07-31T01:14:37;6.73;;;2.23;;
65033;SDS011;51601;51.356;12.458;2023-07-31T01:18:56;7.47;;;2.15;;
65033;SDS011;51601;51.356;12.458;2023-07-31T01:23:22;6.97;;;2.30;;
65033;SDS011;51601;51.356;12.458;2023-07-31T01:27:53;7.85;;;2.10;;
65033;SDS011;51601;51.356;12.458;2023-07-31T01:32:18;7.10;;;2.10;;
65033;SDS011;51601;51.356;12.458;2023-07-31T01:36:38;6.25;;;1.83;;
65033;SDS011;51601;51.356;12.458;2023-07-31T01:40:56;6.28;;;2.20;;
65033;SDS011;51601;51.356;12.458;2023-07-31T01:45:16;5.27;;;2.00;;
65033;SDS011;51601;51.356;12.458;2023-07-31T01:49:35;7.53;;;2.17;;
65033;SDS011;51601;51.356;12.458;2023-07-31T01:53:53;9.38;;;2.50;;
65033;SDS011;51601;51.356;12.458;2023-07-31T01:58:11;6.33;;;2.20;;
65033;SDS011;51601;51.356;12.458;2023-07-31T02:02:31;6.25;;;2.40;;
65033;SDS011;51601;51.356;12.458;2023-07-31T02:06:48;7.07;;;2.00;;
65033;SDS011;51601;51.356;12.458;2023-07-31T02:11:06;7.07;;;2.42;;
65033;SDS011;51601;51.356;12.458;2023-07-31T02:15:24;9.77;;;2.00;;
65033;SDS011;51601;51.356;12.458;2023-07-31T02:19:43;6.82;;;2.10;;
65033;SDS011;51601;51.356;12.458;2023-07-31T02:24:03;6.65;;;2.15;;
65033;SDS011;51601;51.356;12.458;2023-07-31T02:28:21;7.70;;;2.10;;
65033;SDS011;51601;51.356;12.458;2023-07-31T02:32:39;6.63;;;2.10;;
65033;SDS011;51601;51.356;12.458;2023-07-31T02:36:58;5.43;;;1.88;;
65033;SDS011;51601;51.356;12.458;2023-07-31T02:41:15;5.37;;;1.80;;
65033;SDS011;51601;51.356;12.458;2023-07-31T02:45:33;7.63;;;2.10;;
65033;SDS011;51601;51.356;12.458;2023-07-31T02:49:51;7.50;;;2.03;;
65033;SDS011;51601;51.356;12.458;2023-07-31T02:54:11;8.05;;;2.30;;
65033;SDS011;51601;51.356;12.458;2023-07-31T02:58:27;8.80;;;2.10;;
65033;SDS011;51601;51.356;12.458;2023-07-31T03:02:45;6.88;;;2.08;;
65033;SDS011;51601;51.356;12.458;2023-07-31T03:07:04;5.93;;;1.80;;
65033;SDS011;51601;51.356;12.458;2023-07-31T03:11:23;5.13;;;1.80;;
65033;SDS011;51601;51.356;12.458;2023-07-31T03:15:41;6.13;;;2.20;;
65033;SDS011;51601;51.356;12.458;2023-07-31T03:20:01;7.50;;;2.00;;
65033;SDS011;51601;51.356;12.458;2023-07-31T03:24:19;7.30;;;2.10;;
65033;SDS011;51601;51.356;12.458;2023-07-31T03:28:38;7.18;;;2.08;;
65033;SDS011;51601;51.356;12.458;2023-07-31T03:32:55;6.88;;;2.05;;
65033;SDS011;51601;51.356;12.458;2023-07-31T03:37:13;7.03;;;2.08;;
65033;SDS011;51601;51.356;12.458;2023-07-31T03:41:31;7.00;;;2.10;;
65033;SDS011;51601;51.356;12.458;2023-07-31T03:45:51;6.25;;;2.00;;
65033;SDS011;51601;51.356;12.458;2023-07-31T03:50:10;5.70;;;2.03;;
65033;SDS011;51601;51.356;12.458;2023-07-31T03:54:28;13.13;;;2.70;;
65033;SDS011;51601;51.356;12.458;2023-07-31T03:58:46;5.95;;;2.15;;
65033;SDS011;51601;51.356;12.458;2023-07-31T04:03:06;7.10;;;2.50;;
65033;SDS011;51601;51.356;12.458;2023-07-31T04:07:22;6.40;;;2.10;;
65033;SDS011;51601;51.356;12.458;2023-07-31T04:11:40;5.90;;;2.40;;
65033;SDS011;51601;51.356;12.458;2023-07-31T04:15:58;5.40;;;2.15;;
65033;SDS011;51601;51.356;12.458;2023-07-31T04:20:18;7.13;;;2.70;;
65033;SDS011;51601;51.356;12.458;2023-07-31T04:24:34;6.90;;;2.60;;
65033;SDS011;51601;51.356;12.458;2023-07-31T04:28:53;7.45;;;2.80;;
65033;SDS011;51601;51.356;12.458;2023-07-31T04:33:11;8.45;;;2.60;;
65033;SDS011;51601;51.356;12.458;2023-07-31T04:37:30;6.20;;;2.80;;
65033;SDS011;51601;51.356;12.458;2023-07-31T04:41:47;6.25;;;2.50;;
65033;SDS011;51601;51.356;12.458;2023-07-31T04:46:05;10.25;;;3.10;;
65033;SDS011;51601;51.356;12.458;2023-07-31T04:50:23;5.33;;;1.80;;
65033;SDS011;51601;51.356;12.458;2023-07-31T04:54:42;8.32;;;3.20;;
65033;SDS011;51601;51.356;12.458;2023-07-31T04:58:59;9.65;;;3.00;;
65033;SDS011;51601;51.356;12.458;2023-07-31T05:03:17;9.43;;;3.10;;
65033;SDS011;51601;51.356;12.458;2023-07-31T05:07:35;6.07;;;2.50;;
65033;SDS011;51601;51.356;12.458;2023-07-31T05:11:54;12.07;;;3.65;;
65033;SDS011;51601;51.356;12.458;2023-07-31T05:16:11;9.80;;;3.38;;
65033;SDS011;51601;51.356;12.458;2023-07-31T05:20:29;10.90;;;3.07;;
65033;SDS011;51601;51.356;12.458;2023-07-31T05:24:47;8.63;;;2.85;;
65033;SDS011;51601;51.356;12.458;2023-07-31T05:29:07;9.00;;;3.22;;
65033;SDS011;51601;51.356;12.458;2023-07-31T05:33:26;9.47;;;3.40;;
65033;SDS011;51601;51.356;12.458;2023-07-31T05:37:44;9.73;;;3.72;;
65033;SDS011;51601;51.356;12.458;2023-07-31T05:42:03;8.35;;;3.50;;
65033;SDS011;51601;51.356;12.458;2023-07-31T05:46:22;8.80;;;3.08;;
65033;SDS011;51601;51.356;12.458;2023-07-31T05:50:39;8.53;;;3.17;;
65033;SDS011;51601;51.356;12.458;2023-07-31T05:54:57;6.78;;;2.80;;
65033;SDS011;51601;51.356;12.458;2023-07-31T05:59:15;9.23;;;3.08;;
65033;SDS011;51601;51.356;12.458;2023-07-31T06:03:34;9.70;;;3.40;;
65033;SDS011;51601;51.356;12.458;2023-07-31T06:07:51;10.48;;;3.30;;
65033;SDS011;51601;51.356;12.458;2023-07-31T06:12:09;10.27;;;3.40;;
65033;SDS011;51601;51.356;12.458;2023-07-31T06:16:27;12.23;;;3.87;;
65033;SDS011;51601;51.356;12.458;2023-07-31T06:20:47;13.88;;;3.83;;
65033;SDS011;51601;51.356;12.458;2023-07-31T06:25:09;9.52;;;3.25;;
65033;SDS011;51601;51.356;12.458;2023-07-31T06:29:30;8.07;;;2.58;;
65033;SDS011;51601;51.356;12.458;2023-07-31T06:33:48;7.20;;;2.50;;
65033;SDS011;51601;51.356;12.458;2023-07-31T06:38:08;9.02;;;2.90;;
65033;SDS011;51601;51.356;12.458;2023-07-31T06:42:25;7.70;;;2.90;;
65033;SDS011;51601;51.356;12.458;2023-07-31T06:46:43;10.23;;;3.27;;
65033;SDS011;51601;51.356;12.458;2023-07-31T06:51:01;8.15;;;2.60;;
65033;SDS011;51601;51.356;12.458;2023-07-31T06:55:20;7.97;;;2.80;;
65033;SDS011;51601;51.356;12.458;2023-07-31T06:59:40;11.03;;;3.23;;
65033;SDS011;51601;51.356;12.458;2023-07-31T07:03:58;10.57;;;3.13;;
65033;SDS011;51601;51.356;12.458;2023-07-31T07:08:16;9.70;;;3.28;;
65033;SDS011;51601;51.356;12.458;2023-07-31T07:12:35;15.23;;;3.47;;
65033;SDS011;51601;51.356;12.458;2023-07-31T07:16:52;11.87;;;3.47;;
65033;SDS011;51601;51.356;12.458;2023-07-31T07:21:10;10.65;;;2.80;;
65033;SDS011;51601;51.356;12.458;2023-07-31T07:25:31;11.52;;;3.42;;
65033;SDS011;51601;51.356;12.458;2023-07-31T07:29:51;10.00;;;2.83;;
65033;SDS011;51601;51.356;12.458;2023-07-31T07:34:10;6.68;;;2.90;;
65033;SDS011;51601;51.356;12.458;2023-07-31T07:38:29;27.13;;;5.40;;
65033;SDS011;51601;51.356;12.458;2023-07-31T07:42:47;24.83;;;4.00;;
65033;SDS011;51601;51.356;12.458;2023-07-31T07:47:06;21.58;;;4.30;;
65033;SDS011;51601;51.356;12.458;2023-07-31T07:51:23;11.02;;;2.90;;
65033;SDS011;51601;51.356;12.458;2023-07-31T07:55:41;7.82;;;2.70;;
65033;SDS011;51601;51.356;12.458;2023-07-31T07:59:59;7.43;;;2.70;;
65033;SDS011;51601;51.356;12.458;2023-07-31T08:04:31;9.68;;;2.88;;
65033;SDS011;51601;51.356;12.458;2023-07-31T08:08:47;8.45;;;2.70;;
65033;SDS011;51601;51.356;12.458;2023-07-31T08:13:05;7.53;;;2.40;;
65033;SDS011;51601;51.356;12.458;2023-07-31T08:17:23;6.63;;;2.13;;
65033;SDS011;51601;51.356;12.458;2023-07-31T08:21:43;7.20;;;2.50;;
65033;SDS011;51601;51.356;12.458;2023-07-31T08:25:59;5.97;;;2.40;;
65033;SDS011;51601;51.356;12.458;2023-07-31T08:30:18;9.45;;;3.15;;
65033;SDS011;51601;51.356;12.458;2023-07-31T08:34:39;7.32;;;2.70;;
65033;SDS011;51601;51.356;12.458;2023-07-31T08:38:58;8.82;;;2.85;;
65033;SDS011;51601;51.356;12.458;2023-07-31T08:43:15;8.77;;;2.40;;
65033;SDS011;51601;51.356;12.458;2023-07-31T08:47:33;9.25;;;3.10;;
65033;SDS011;51601;51.356;12.458;2023-07-31T08:51:51;7.95;;;2.30;;
65033;SDS011;51601;51.356;12.458;2023-07-31T08:56:10;8.40;;;2.77;;
65033;SDS011;51601;51.356;12.458;2023-07-31T09:00:30;8.50;;;2.45;;
65033;SDS011;51601;51.356;12.458;2023-07-31T09:04:51;8.15;;;2.30;;
65033;SDS011;51601;51.356;12.458;2023-07-31T09:09:09;7.67;;;2.50;;
65033;SDS011;51601;51.356;12.458;2023-07-31T09:13:29;6.68;;;2.40;;
65033;SDS011;51601;51.356;12.458;2023-07-31T09:17:48;10.15;;;2.88;;
65033;SDS011;51601;51.356;12.458;2023-07-31T09:22:16;14.70;;;5.35;;
65033;SDS011;51601;51.356;12.458;2023-07-31T09:26:34;7.10;;;2.60;;
65033;SDS011;51601;51.356;12.458;2023-07-31T09:30:53;7.50;;;3.38;;
65033;SDS011;51601;51.356;12.458;2023-07-31T09:35:13;10.45;;;3.00;;
65033;SDS011;51601;51.356;12.458;2023-07-31T09:39:45;9.43;;;2.90;;
65033;SDS011;51601;51.356;12.458;2023-07-31T09:44:04;9.07;;;2.60;;
65033;SDS011;51601;51.356;12.458;2023-07-31T09:48:24;7.25;;;2.72;;
65033;SDS011;51601;51.356;12.458;2023-07-31T09:52:44;7.80;;;2.80;;
65033;SDS011;51601;51.356;12.458;2023-07-31T09:57:02;7.70;;;2.15;;
65033;SDS011;51601;51.356;12.458;2023-07-31T10:01:20;7.90;;;2.55;;
65033;SDS011;51601;51.356;12.458;2023-07-31T10:05:40;8.15;;;2.50;;
65033;SDS011;51601;51.356;12.458;2023-07-31T10:09:59;8.00;;;2.90;;
65033;SDS011;51601;51.356;12.458;2023-07-31T10:14:20;7.40;;;2.53;;
65033;SDS011;51601;51.356;12.458;2023-07-31T10:18:38;8.73;;;2.67;;
65033;SDS011;51601;51.356;12.458;2023-07-31T10:23:00;8.23;;;2.87;;
65033;SDS011;51601;51.356;12.458;2023-07-31T10:27:20;6.50;;;2.58;;
65033;SDS011;51601;51.356;12.458;2023-07-31T10:31:38;9.25;;;2.50;;
65033;SDS011;51601;51.356;12.458;2023-07-31T10:40:31;8.57;;;2.65;;
65033;SDS011;51601;51.356;12.458;2023-07-31T10:44:51;6.35;;;2.20;;
65033;SDS011;51601;51.356;12.458;2023-07-31T10:49:20;6.47;;;2.38;;
65033;SDS011;51601;51.356;12.458;2023-07-31T10:53:39;7.00;;;2.67;;
65033;SDS011;51601;51.356;12.458;2023-07-31T10:58:05;11.07;;;2.90;;
65033;SDS011;51601;51.356;12.458;2023-07-31T11:02:25;8.90;;;2.70;;
65033;SDS011;51601;51.356;12.458;2023-07-31T11:06:54;7.03;;;2.57;;
65033;SDS011;51601;51.356;12.458;2023-07-31T11:11:14;6.82;;;2.40;;
65033;SDS011;51601;51.356;12.458;2023-07-31T11:15:36;8.13;;;2.25;;
65033;SDS011;51601;51.356;12.458;2023-07-31T11:19:55;7.03;;;2.40;;
65033;SDS011;51601;51.356;12.458;2023-07-31T11:24:13;6.38;;;2.55;;
65033;SDS011;51601;51.356;12.458;2023-07-31T11:28:32;6.38;;;2.30;;
65033;SDS011;51601;51.356;12.458;2023-07-31T11:32:51;7.80;;;2.60;;
65033;SDS011;51601;51.356;12.458;2023-07-31T11:37:11;5.33;;;1.90;;
65033;SDS011;51601;51.356;12.458;2023-07-31T11:41:29;7.18;;;2.70;;
65033;SDS011;51601;51.356;12.458;2023-07-31T11:45:47;7.43;;;2.83;;
65033;SDS011;51601;51.356;12.458;2023-07-31T11:50:09;12.20;;;3.37;;
65033;SDS011;51601;51.356;12.458;2023-07-31T11:54:29;6.82;;;2.50;;
65033;SDS011;51601;51.356;12.458;2023-07-31T11:58:48;8.05;;;2.67;;
65033;SDS011;51601;51.356;12.458;2023-07-31T12:03:08;9.87;;;2.77;;
65033;SDS011;51601;51.356;12.458;2023-07-31T12:07:28;7.53;;;2.60;;
65033;SDS011;51601;51.356;12.458;2023-07-31T12:12:00;8.73;;;3.00;;
65033;SDS011;51601;51.356;12.458;2023-07-31T12:16:18;8.45;;;2.80;;
65033;SDS011;51601;51.356;12.458;2023-07-31T12:20:39;8.27;;;2.83;;
65033;SDS011;51601;51.356;12.458;2023-07-31T12:25:01;7.90;;;2.80;;
65033;SDS011;51601;51.356;12.458;2023-07-31T12:29:21;8.63;;;2.80;;
65033;SDS011;51601;51.356;12.458;2023-07-31T12:33:39;8.63;;;2.87;;
65033;SDS011;51601;51.356;12.458;2023-07-31T12:38:00;8.45;;;3.05;;
65033;SDS011;51601;51.356;12.458;2023-07-31T12:42:20;8.45;;;2.70;;
65033;SDS011;51601;51.356;12.458;2023-07-31T12:46:36;6.23;;;2.60;;
65033;SDS011;51601;51.356;12.458;2023-07-31T12:50:57;7.63;;;2.70;;
65033;SDS011;51601;51.356;12.458;2023-07-31T12:55:15;6.38;;;2.60;;
65033;SDS011;51601;51.356;12.458;2023-07-31T12:59:35;7.78;;;2.70;;
65033;SDS011;51601;51.356;12.458;2023-07-31T13:03:55;7.07;;;2.63;;
65033;SDS011;51601;51.356;12.458;2023-07-31T13:08:16;7.00;;;2.85;;
65033;SDS011;51601;51.356;12.458;2023-07-31T13:12:34;8.35;;;3.03;;
65033;SDS011;51601;51.356;12.458;2023-07-31T13:16:53;8.27;;;2.80;;
65033;SDS011;51601;51.356;12.458;2023-07-31T13:21:13;7.50;;;2.80;;
65033;SDS011;51601;51.356;12.458;2023-07-31T13:25:31;8.25;;;2.85;;
65033;SDS011;51601;51.356;12.458;2023-07-31T13:29:52;7.67;;;2.83;;
65033;SDS011;51601;51.356;12.458;2023-07-31T13:34:13;5.70;;;2.22;;
65033;SDS011;51601;51.356;12.458;2023-07-31T13:38:35;6.70;;;2.40;;
65033;SDS011;51601;51.356;12.458;2023-07-31T13:42:53;5.63;;;2.03;;
65033;SDS011;51601;51.356;12.458;2023-07-31T13:47:11;7.10;;;2.10;;
65033;SDS011;51601;51.356;12.458;2023-07-31T13:51:30;5.97;;;2.33;;
65033;SDS011;51601;51.356;12.458;2023-07-31T13:55:53;5.93;;;2.10;;
65033;SDS011;51601;51.356;12.458;2023-07-31T14:00:12;6.60;;;2.17;;
65033;SDS011;51601;51.356;12.458;2023-07-31T14:04:33;7.63;;;4.25;;
65033;SDS011;51601;51.356;12.458;2023-07-31T14:08:55;6.13;;;2.40;;
65033;SDS011;51601;51.356;12.458;2023-07-31T14:13:14;6.93;;;2.70;;
65033;SDS011;51601;51.356;12.458;2023-07-31T14:17:32;6.78;;;2.35;;
65033;SDS011;51601;51.356;12.458;2023-07-31T14:21:51;7.13;;;2.63;;
65033;SDS011;51601;51.356;12.458;2023-07-31T14:26:28;6.65;;;2.70;;
65033;SDS011;51601;51.356;12.458;2023-07-31T14:30:48;6.90;;;2.30;;
65033;SDS011;51601;51.356;12.458;2023-07-31T14:35:06;6.07;;;2.58;;
65033;SDS011;51601;51.356;12.458;2023-07-31T14:39:24;6.28;;;2.60;;
65033;SDS011;51601;51.356;12.458;2023-07-31T14:43:44;5.57;;;2.13;;
65033;SDS011;51601;51.356;12.458;2023-07-31T14:48:00;6.80;;;2.28;;
65033;SDS011;51601;51.356;12.458;2023-07-31T14:52:19;7.45;;;2.35;;
65033;SDS011;51601;51.356;12.458;2023-07-31T14:56:36;6.43;;;2.40;;
65033;SDS011;51601;51.356;12.458;2023-07-31T15:00:56;8.07;;;2.17;;
65033;SDS011;51601;51.356;12.458;2023-07-31T15:05:16;6.45;;;2.20;;
65033;SDS011;51601;51.356;12.458;2023-07-31T15:09:34;5.22;;;1.90;;
65033;SDS011;51601;51.356;12.458;2023-07-31T15:13:52;5.43;;;2.20;;
65033;SDS011;51601;51.356;12.458;2023-07-31T15:18:11;8.02;;;2.50;;
65033;SDS011;51601;51.356;12.458;2023-07-31T15:22:31;8.73;;;4.45;;
65033;SDS011;51601;51.356;12.458;2023-07-31T15:26:49;7.60;;;2.93;;
65033;SDS011;51601;51.356;12.458;2023-07-31T15:31:07;8.52;;;2.40;;
65033;SDS011;51601;51.356;12.458;2023-07-31T15:35:26;6.55;;;2.20;;
65033;SDS011;51601;51.356;12.458;2023-07-31T15:39:43;6.23;;;2.30;;
65033;SDS011;51601;51.356;12.458;2023-07-31T15:44:05;7.53;;;2.30;;
65033;SDS011;51601;51.356;12.458;2023-07-31T15:48:22;8.43;;;2.90;;
65033;SDS011;51601;51.356;12.458;2023-07-31T15:52:45;7.38;;;2.22;;
65033;SDS011;51601;51.356;12.458;2023-07-31T15:57:05;7.77;;;2.50;;
65033;SDS011;51601;51.356;12.458;2023-07-31T16:01:26;8.68;;;2.50;;
65033;SDS011;51601;51.356;12.458;2023-07-31T16:05:44;6.30;;;2.38;;
65033;SDS011;51601;51.356;12.458;2023-07-31T16:10:04;6.97;;;2.53;;
65033;SDS011;51601;51.356;12.458;2023-07-31T16:14:23;7.20;;;2.53;;
65033;SDS011;51601;51.356;12.458;2023-07-31T16:18:41;7.65;;;2.65;;
65033;SDS011;51601;51.356;12.458;2023-07-31T16:22:59;8.03;;;2.70;;
65033;SDS011;51601;51.356;12.458;2023-07-31T16:27:18;7.15;;;2.67;;
65033;SDS011;51601;51.356;12.458;2023-07-31T16:31:38;8.02;;;3.03;;
65033;SDS011;51601;51.356;12.458;2023-07-31T16:36:11;6.88;;;2.80;;
65033;SDS011;51601;51.356;12.458;2023-07-31T16:40:30;6.30;;;2.77;;
65033;SDS011;51601;51.356;12.458;2023-07-31T16:44:49;6.97;;;2.60;;
65033;SDS011;51601;51.356;12.458;2023-07-31T16:49:06;7.53;;;2.70;;
65033;SDS011;51601;51.356;12.458;2023-07-31T16:53:24;7.50;;;2.90;;
65033;SDS011;51601;51.356;12.458;2023-07-31T16:57:42;7.68;;;2.60;;
65033;SDS011;51601;51.356;12.458;2023-07-31T17:02:01;8.80;;;3.03;;
65033;SDS011;51601;51.356;12.458;2023-07-31T17:06:21;9.43;;;2.80;;
65033;SDS011;51601;51.356;12.458;2023-07-31T17:10:39;7.05;;;2.70;;
65033;SDS011;51601;51.356;12.458;2023-07-31T17:14:57;7.35;;;2.70;;
65033;SDS011;51601;51.356;12.458;2023-07-31T17:19:16;6.65;;;2.42;;
65033;SDS011;51601;51.356;12.458;2023-07-31T17:23:33;7.07;;;2.50;;
65033;SDS011;51601;51.356;12.458;2023-07-31T17:27:51;9.50;;;3.35;;
65033;SDS011;51601;51.356;12.458;2023-07-31T17:32:12;7.88;;;3.03;;
65033;SDS011;51601;51.356;12.458;2023-07-31T17:36:32;7.40;;;2.80;;
65033;SDS011;51601;51.356;12.458;2023-07-31T17:40:50;9.23;;;3.25;;
65033;SDS011;51601;51.356;12.458;2023-07-31T17:45:10;8.60;;;2.83;;
65033;SDS011;51601;51.356;12.458;2023-07-31T17:49:28;10.20;;;3.30;;
65033;SDS011;51601;51.356;12.458;2023-07-31T17:53:47;8.48;;;3.30;;
65033;SDS011;51601;51.356;12.458;2023-07-31T17:58:04;8.25;;;3.13;;
65033;SDS011;51601;51.356;12.458;2023-07-31T18:02:22;7.85;;;2.83;;
65033;SDS011;51601;51.356;12.458;2023-07-31T18:06:40;9.60;;;3.30;;
65033;SDS011;51601;51.356;12.458;2023-07-31T18:10:59;10.40;;;2.90;;
65033;SDS011;51601;51.356;12.458;2023-07-31T18:15:22;7.68;;;2.90;;
65033;SDS011;51601;51.356;12.458;2023-07-31T18:19:40;9.97;;;2.93;;
65033;SDS011;51601;51.356;12.458;2023-07-31T18:23:58;7.50;;;2.97;;
65033;SDS011;51601;51.356;12.458;2023-07-31T18:28:18;7.85;;;2.45;;
65033;SDS011;51601;51.356;12.458;2023-07-31T18:32:38;9.17;;;3.70;;
65033;SDS011;51601;51.356;12.458;2023-07-31T18:36:55;7.40;;;3.00;;
65033;SDS011;51601;51.356;12.458;2023-07-31T18:41:14;11.15;;;3.08;;
65033;SDS011;51601;51.356;12.458;2023-07-31T18:45:33;8.52;;;2.95;;
65033;SDS011;51601;51.356;12.458;2023-07-31T18:49:53;7.80;;;3.00;;
65033;SDS011;51601;51.356;12.458;2023-07-31T18:54:11;9.57;;;3.10;;
65033;SDS011;51601;51.356;12.458;2023-07-31T18:58:29;7.72;;;3.05;;
65033;SDS011;51601;51.356;12.458;2023-07-31T19:02:48;10.07;;;3.23;;
65033;SDS011;51601;51.356;12.458;2023-07-31T19:07:08;8.40;;;3.10;;
65033;SDS011;51601;51.356;12.458;2023-07-31T19:11:26;8.50;;;3.08;;
65033;SDS011;51601;51.356;12.458;2023-07-31T19:15:47;8.90;;;3.10;;
65033;SDS011;51601;51.356;12.458;2023-07-31T19:20:07;8.23;;;3.40;;
65033;SDS011;51601;51.356;12.458;2023-07-31T19:24:30;7.50;;;3.10;;
65033;SDS011;51601;51.356;12.458;2023-07-31T19:29:00;8.25;;;3.38;;
65033;SDS011;51601;51.356;12.458;2023-07-31T19:33:18;9.13;;;3.50;;
65033;SDS011;51601;51.356;12.458;2023-07-31T19:37:37;7.85;;;3.33;;
65033;SDS011;51601;51.356;12.458;2023-07-31T19:41:57;9.45;;;3.40;;
65033;SDS011;51601;51.356;12.458;2023-07-31T19:46:15;7.20;;;2.73;;
65033;SDS011;51601;51.356;12.458;2023-07-31T19:50:33;8.63;;;3.50;;
65033;SDS011;51601;51.356;12.458;2023-07-31T19:54:53;10.10;;;3.20;;
65033;SDS011;51601;51.356;12.458;2023-07-31T19:59:13;8.27;;;3.13;;
65033;SDS011;51601;51.356;12.458;2023-07-31T20:03:30;9.38;;;2.90;;
65033;SDS011;51601;51.356;12.458;2023-07-31T20:07:49;9.30;;;3.00;;
65033;SDS011;51601;51.356;12.458;2023-07-31T20:12:11;9.35;;;3.40;;
65033;SDS011;51601;51.356;12.458;2023-07-31T20:16:31;9.67;;;2.80;;
65033;SDS011;51601;51.356;12.458;2023-07-31T20:20:52;9.15;;;3.30;;
65033;SDS011;51601;51.356;12.458;2023-07-31T20:25:10;8.45;;;2.90;;
65033;SDS011;51601;51.356;12.458;2023-07-31T20:29:29;6.97;;;2.37;;
65033;SDS011;51601;51.356;12.458;2023-07-31T20:33:49;12.32;;;3.08;;
65033;SDS011;51601;51.356;12.458;2023-07-31T20:38:07;6.95;;;2.83;;
65033;SDS011;51601;51.356;12.458;2023-07-31T20:42:25;9.43;;;3.20;;
65033;SDS011;51601;51.356;12.458;2023-07-31T20:46:45;7.13;;;2.90;;
65033;SDS011;51601;51.356;12.458;2023-07-31T20:51:04;7.63;;;2.70;;
65033;SDS011;51601;51.356;12.458;2023-07-31T20:55:22;8.93;;;3.20;;
65033;SDS011;51601;51.356;12.458;2023-07-31T20:59:40;7.50;;;2.83;;
65033;SDS011;51601;51.356;12.458;2023-07-31T21:04:00;8.25;;;2.72;;
65033;SDS011;51601;51.356;12.458;2023-07-31T21:08:20;9.93;;;3.42;;
65033;SDS011;51601;51.356;12.458;2023-07-31T21:12:38;8.37;;;3.17;;
65033;SDS011;51601;51.356;12.458;2023-07-31T21:16:56;7.68;;;2.70;;
65033;SDS011;51601;51.356;12.458;2023-07-31T21:21:15;11.77;;;3.63;;
65033;SDS011;51601;51.356;12.458;2023-07-31T21:25:32;6.90;;;2.53;;
65033;SDS011;51601;51.356;12.458;2023-07-31T21:29:50;8.80;;;2.90;;
65033;SDS011;51601;51.356;12.458;2023-07-31T21:34:08;8.02;;;2.50;;
65033;SDS011;51601;51.356;12.458;2023-07-31T21:38:27;7.78;;;2.97;;
65033;SDS011;51601;51.356;12.458;2023-07-31T21:42:44;7.00;;;2.60;;
65033;SDS011;51601;51.356;12.458;2023-07-31T21:47:02;6.78;;;2.80;;
65033;SDS011;51601;51.356;12.458;2023-07-31T21:51:20;6.60;;;2.53;;
65033;SDS011;51601;51.356;12.458;2023-07-31T21:55:40;9.87;;;2.90;;
65033;SDS011;51601;51.356;12.458;2023-07-31T21:59:59;8.38;;;3.10;;
65033;SDS011;51601;51.356;12.458;2023-07-31T22:04:21;7.80;;;2.55;;
65033;SDS011;51601;51.356;12.458;2023-07-31T22:08:38;7.27;;;2.77;;
65033;SDS011;51601;51.356;12.458;2023-07-31T22:12:58;7.13;;;2.90;;
65033;SDS011;51601;51.356;12.458;2023-07-31T22:17:15;7.30;;;3.10;;
65033;SDS011;51601;51.356;12.458;2023-07-31T22:21:33;8.65;;;3.30;;
65033;SDS011;51601;51.356;12.458;2023-07-31T22:25:51;10.73;;;3.60;;
65033;SDS011;51601;51.356;12.458;2023-07-31T22:30:11;7.85;;;2.90;;
65033;SDS011;51601;51.356;12.458;2023-07-31T22:34:31;9.23;;;3.50;;
65033;SDS011;51601;51.356;12.458;2023-07-31T22:38:48;7.60;;;3.80;;
65033;SDS011;51601;51.356;12.458;2023-07-31T22:43:06;9.00;;;3.65;;
65033;SDS011;51601;51.356;12.458;2023-07-31T22:47:25;6.85;;;3.20;;
65033;SDS011;51601;51.356;12.458;2023-07-31T22:51:42;11.33;;;3.80;;
65033;SDS011;51601;51.356;12.458;2023-07-31T22:56:02;9.30;;;4.03;;
65033;SDS011;51601;51.356;12.458;2023-07-31T23:00:21;10.25;;;4.20;;
65033;SDS011;51601;51.356;12.458;2023-07-31T23:04:41;11.60;;;4.57;;
65033;SDS011;51601;51.356;12.458;2023-07-31T23:08:57;11.37;;;4.07;;
65033;SDS011;51601;51.356;12.458;2023-07-31T23:13:16;9.35;;;4.45;;
65033;SDS011;51601;51.356;12.458;2023-07-31T23:17:33;10.40;;;3.92;;
65033;SDS011;51601;51.356;12.458;2023-07-31T23:21:53;10.13;;;4.47;;
65033;SDS011;51601;51.356;12.458;2023-07-31T23:26:10;11.40;;;4.10;;
65033;SDS011;51601;51.356;12.458;2023-07-31T23:30:28;10.93;;;5.43;;
65033;SDS011;51601;51.356;12.458;2023-07-31T23:34:46;7.97;;;3.77;;
65033;SDS011;51601;51.356;12.458;2023-07-31T23:39:05;9.80;;;4.47;;
65033;SDS011;51601;51.356;12.458;2023-07-31T23:43:22;10.30;;;3.97;;
65033;SDS011;51601;51.356;12.458;2023-07-31T23:47:40;12.55;;;4.38;;
65033;SDS011;51601;51.356;12.458;2023-07-31T23:51:58;9.17;;;3.87;;
65033;SDS011;51601;51.356;12.458;2023-07-31T23:56:17;12.05;;;5.47;;
